createdAt,value
2022-12-14T00:01:41.547Z,26.73
2022-12-14T00:04:12.606Z,22.10
2022-12-14T00:06:39.700Z,19.45
2022-12-14T00:09:07.239Z,17.45
2022-12-14T00:11:34.680Z,27.30
2022-12-14T00:14:03.180Z,20.23
2022-12-14T00:16:31.322Z,19.65
2022-12-14T00:18:59.357Z,19.33
2022-12-14T00:21:26.991Z,18.98
2022-12-14T00:23:54.577Z,22.48
2022-12-14T00:26:22.965Z,20.80
2022-12-14T00:28:52.446Z,23.85
2022-12-14T00:31:19.863Z,21.17
2022-12-14T00:33:47.453Z,22.40
2022-12-14T00:36:14.867Z,18.25
2022-12-14T00:38:42.768Z,20.77
2022-12-14T00:41:10.364Z,20.23
2022-12-14T00:43:37.743Z,24.75
2022-12-14T00:46:05.235Z,25.00
2022-12-14T00:48:33.315Z,27.33
2022-12-14T00:51:00.501Z,29.27
2022-12-14T00:53:28.384Z,26.25
2022-12-14T00:55:55.620Z,27.05
2022-12-14T00:58:24.055Z,37.25
2022-12-14T01:01:01.551Z,27.38
2022-12-14T01:03:29.561Z,31.63
2022-12-14T01:06:00.022Z,27.98
2022-12-14T01:08:35.556Z,26.88
2022-12-14T01:11:09.872Z,29.17
2022-12-14T01:13:37.590Z,22.92
2022-12-14T01:16:14.642Z,21.77
2022-12-14T01:18:43.233Z,24.30
2022-12-14T01:21:11.853Z,25.30
2022-12-14T01:23:39.375Z,27.27
2022-12-14T01:26:06.508Z,25.10
2022-12-14T01:28:35.183Z,26.27
2022-12-14T01:31:09.692Z,32.78
2022-12-14T01:33:37.103Z,26.38
2022-12-14T01:36:07.749Z,30.40
2022-12-14T01:38:35.300Z,28.52
2022-12-14T01:41:02.583Z,27.35
2022-12-14T01:43:50.327Z,25.88
2022-12-14T01:46:40.602Z,24.42
2022-12-14T01:49:14.058Z,31.50
2022-12-14T01:51:43.856Z,31.27
2022-12-14T01:54:13.583Z,31.42
2022-12-14T01:56:42.863Z,28.73
2022-12-14T01:59:14.909Z,29.13
2022-12-14T02:01:42.358Z,29.33
2022-12-14T02:04:10.869Z,33.25
2022-12-14T02:06:40.861Z,33.88
2022-12-14T02:09:11.292Z,27.10
2022-12-14T02:14:06.031Z,29.63
2022-12-14T02:16:33.550Z,27.15
2022-12-14T02:19:01.695Z,27.40
2022-12-14T02:21:29.108Z,28.25
2022-12-14T02:24:16.661Z,26.48
2022-12-14T02:27:03.126Z,25.85
2022-12-14T02:29:49.375Z,26.52
2022-12-14T02:32:19.206Z,24.90
2022-12-14T02:35:14.045Z,27.88
2022-12-14T02:37:59.501Z,23.75
2022-12-14T02:40:40.017Z,25.63
2022-12-14T02:43:07.050Z,28.40
2022-12-14T02:49:34.674Z,26.63
2022-12-14T02:52:02.023Z,27.90
2022-12-14T02:54:44.980Z,29.13
2022-12-14T02:57:13.596Z,26.75
2022-12-14T02:59:41.538Z,27.17
2022-12-14T03:02:10.494Z,27.27
2022-12-14T03:04:45.782Z,27.03
2022-12-14T03:07:48.774Z,36.22
2022-12-14T03:10:18.985Z,28.52
2022-12-14T03:12:49.475Z,24.42
2022-12-14T03:15:18.249Z,28.08
2022-12-14T03:17:49.115Z,29.08
2022-12-14T03:20:20.752Z,27.05
2022-12-14T03:22:48.104Z,28.95
2022-12-14T03:25:17.610Z,26.40
2022-12-14T03:27:47.899Z,24.90
2022-12-14T03:30:23.727Z,24.70
2022-12-14T03:33:06.572Z,23.02
2022-12-14T03:35:36.263Z,26.88
2022-12-14T03:38:14.015Z,22.88
2022-12-14T03:40:52.789Z,22.73
2022-12-14T03:43:36.150Z,25.02
2022-12-14T03:46:41.958Z,22.95
2022-12-14T03:49:27.816Z,24.55
2022-12-14T03:52:00.362Z,23.67
2022-12-14T03:54:36.082Z,33.08
2022-12-14T03:57:07.248Z,34.28
2022-12-14T03:59:39.089Z,39.22
2022-12-14T04:02:12.934Z,36.33
2022-12-14T04:04:45.963Z,34.65
2022-12-14T04:07:25.625Z,36.08
2022-12-14T04:09:56.550Z,31.33
2022-12-14T04:12:51.201Z,32.53
2022-12-14T04:15:43.133Z,27.08
2022-12-14T04:18:31.442Z,23.75
2022-12-14T04:21:02.318Z,25.93
2022-12-14T04:23:53.353Z,28.02
2022-12-14T04:26:23.636Z,27.15
2022-12-14T04:29:20.129Z,25.77
2022-12-14T04:31:53.623Z,28.65
2022-12-14T04:34:23.146Z,32.00
2022-12-14T04:36:53.673Z,44.63
2022-12-14T04:39:43.978Z,36.58
2022-12-14T04:42:13.710Z,37.38
2022-12-14T04:44:42.649Z,26.10
2022-12-14T04:47:11.551Z,27.77
2022-12-14T04:49:49.201Z,23.60
2022-12-14T04:52:25.499Z,20.38
2022-12-14T04:54:58.350Z,26.02
2022-12-14T04:57:32.065Z,21.60
2022-12-14T05:00:00.667Z,20.80
2022-12-14T05:02:36.526Z,20.23
2022-12-14T05:05:03.738Z,33.13
2022-12-14T05:07:48.760Z,34.97
2022-12-14T05:10:25.547Z,28.20
2022-12-14T05:12:59.023Z,24.15
2022-12-14T05:15:30.705Z,27.70
2022-12-14T05:18:01.490Z,22.60
2022-12-14T05:20:28.592Z,20.63
2022-12-14T05:22:55.963Z,23.15
2022-12-14T05:25:23.126Z,21.35
2022-12-14T05:27:50.471Z,21.20
2022-12-14T05:30:17.577Z,20.23
2022-12-14T05:32:44.919Z,21.17
2022-12-14T05:35:13.371Z,20.45
2022-12-14T05:37:41.369Z,39.63
2022-12-14T05:40:08.862Z,29.63
2022-12-14T05:42:40.955Z,26.23
2022-12-14T05:45:11.952Z,27.95
2022-12-14T05:47:39.828Z,25.45
2022-12-14T05:50:07.394Z,32.65
2022-12-14T05:52:34.744Z,32.45
2022-12-14T05:55:04.413Z,36.55
2022-12-14T05:57:32.286Z,41.10
2022-12-14T06:00:00.351Z,38.10
2022-12-14T06:02:27.782Z,48.63
2022-12-14T06:04:54.840Z,29.10
2022-12-14T06:07:27.486Z,32.28
2022-12-14T06:09:55.262Z,26.08
2022-12-14T06:12:22.780Z,28.80
2022-12-14T06:14:49.854Z,34.67
2022-12-14T06:17:17.290Z,34.92
2022-12-14T06:19:49.820Z,38.58
2022-12-14T06:22:18.512Z,34.72
2022-12-14T06:24:45.779Z,29.95
2022-12-14T06:27:13.243Z,29.83
2022-12-14T06:29:40.390Z,27.95
2022-12-14T06:32:07.743Z,45.03
2022-12-14T06:34:38.707Z,36.67
2022-12-14T06:37:07.331Z,38.60
2022-12-14T06:39:34.527Z,36.88
2022-12-14T06:42:02.027Z,34.08
2022-12-14T06:44:29.189Z,37.80
2022-12-14T06:46:57.470Z,43.40
2022-12-14T06:49:24.686Z,45.70
2022-12-14T06:51:52.064Z,42.03
2022-12-14T06:54:19.433Z,201.45
2022-12-14T06:56:47.455Z,96.03
2022-12-14T06:59:15.168Z,91.50
2022-12-14T07:01:42.851Z,64.50
2022-12-14T07:04:10.032Z,41.20
2022-12-14T07:06:39.109Z,72.57
2022-12-14T07:09:07.383Z,103.75
2022-12-14T07:11:34.913Z,136.53
2022-12-14T07:14:06.114Z,176.82
2022-12-14T07:16:34.208Z,77.15
2022-12-14T07:19:01.488Z,88.25
2022-12-14T07:21:29.432Z,54.45
2022-12-14T07:23:59.941Z,52.70
2022-12-14T07:26:27.731Z,56.20
2022-12-14T07:28:55.168Z,50.95
2022-12-14T07:31:26.180Z,59.88
2022-12-14T07:33:54.457Z,57.08
2022-12-14T07:36:23.174Z,54.03
2022-12-14T07:38:50.925Z,49.65
2022-12-14T07:41:22.731Z,69.00
2022-12-14T07:43:50.647Z,58.55
2022-12-14T07:46:20.077Z,71.78
2022-12-14T07:48:48.809Z,39.05
2022-12-14T07:51:17.643Z,63.15
2022-12-14T07:53:44.734Z,83.28
2022-12-14T07:56:13.954Z,81.10
2022-12-14T07:58:41.174Z,69.65
2022-12-14T08:01:14.685Z,45.90
2022-12-14T08:03:42.893Z,36.65
2022-12-14T08:06:11.276Z,54.45
2022-12-14T08:08:38.882Z,34.92
2022-12-14T08:11:06.999Z,36.78
2022-12-14T08:13:34.433Z,35.10
2022-12-14T08:16:08.869Z,44.00
2022-12-14T08:18:36.120Z,45.05
2022-12-14T08:21:04.888Z,37.40
2022-12-14T08:23:32.802Z,42.65
2022-12-14T08:26:01.038Z,317.50
2022-12-14T08:28:29.307Z,149.18
2022-12-14T08:30:56.907Z,211.48
2022-12-14T08:33:24.398Z,56.97
2022-12-14T08:35:51.778Z,63.35
2022-12-14T08:38:18.993Z,56.10
2022-12-14T08:40:47.671Z,58.72
2022-12-14T08:43:14.736Z,63.75
2022-12-14T08:45:42.371Z,57.15
2022-12-14T08:48:09.660Z,59.65
2022-12-14T08:50:37.088Z,55.40
2022-12-14T08:53:04.230Z,55.38
2022-12-14T08:55:38.265Z,62.58
2022-12-14T08:58:05.863Z,54.88
2022-12-14T09:00:33.254Z,57.83
2022-12-14T09:03:00.565Z,57.60
2022-12-14T09:05:28.464Z,56.55
2022-12-14T09:07:55.507Z,60.63
2022-12-14T09:10:22.922Z,88.93
2022-12-14T09:12:49.998Z,65.53
2022-12-14T09:15:17.392Z,68.25
2022-12-14T09:17:44.501Z,79.50
2022-12-14T09:20:13.709Z,79.72
2022-12-14T09:22:40.818Z,74.82
2022-12-14T09:25:09.335Z,74.80
2022-12-14T09:27:36.593Z,75.00
2022-12-14T09:30:04.140Z,75.53
2022-12-14T09:32:31.701Z,101.38
2022-12-14T09:34:59.630Z,73.10
2022-12-14T09:37:26.599Z,116.05
2022-12-14T09:39:54.005Z,61.03
2022-12-14T09:42:23.914Z,70.60
2022-12-14T09:44:57.413Z,68.45
2022-12-14T09:47:33.708Z,65.00
2022-12-14T09:50:06.546Z,91.85
2022-12-14T09:52:33.569Z,75.68
2022-12-14T09:55:03.379Z,71.72
2022-12-14T09:59:57.912Z,64.63
2022-12-14T10:02:50.794Z,79.13
2022-12-14T10:05:30.550Z,70.45
2022-12-14T10:08:10.791Z,65.88
2022-12-14T10:10:44.278Z,83.03
2022-12-14T10:13:19.784Z,87.28
2022-12-14T10:15:54.311Z,98.22
2022-12-14T10:18:57.684Z,87.60
2022-12-14T10:21:16.141Z,93.88
2022-12-14T10:23:52.688Z,142.68
2022-12-14T10:26:21.813Z,122.32
2022-12-14T10:28:49.002Z,106.93
2022-12-14T10:31:20.956Z,85.53
2022-12-14T10:33:48.251Z,75.90
2022-12-14T10:36:19.137Z,75.25
2022-12-14T10:38:49.496Z,75.57
2022-12-14T10:41:36.494Z,69.60
2022-12-14T10:44:09.803Z,83.32
2022-12-14T10:46:47.313Z,67.38
2022-12-14T10:49:33.077Z,75.10
2022-12-14T10:52:03.510Z,86.18
2022-12-14T10:54:45.341Z,89.70
2022-12-14T10:57:20.083Z,85.95
2022-12-14T11:00:05.199Z,72.63
2022-12-14T11:02:37.546Z,62.08
2022-12-14T11:05:14.824Z,62.20
2022-12-14T11:07:49.990Z,215.75
2022-12-14T11:10:19.087Z,180.48
2022-12-14T11:12:55.407Z,111.53
2022-12-14T11:15:23.879Z,268.95
2022-12-14T11:18:00.793Z,136.38
2022-12-14T11:20:28.014Z,110.90
2022-12-14T11:22:57.297Z,100.88
2022-12-14T11:25:27.513Z,224.75
2022-12-14T11:27:55.277Z,180.57
2022-12-14T11:30:22.411Z,92.68
2022-12-14T11:32:50.184Z,49.97
2022-12-14T11:35:18.615Z,67.53
2022-12-14T11:37:48.677Z,60.53
2022-12-14T11:40:20.239Z,52.00
2022-12-14T11:42:49.362Z,62.28
2022-12-14T11:45:19.261Z,54.80
2022-12-14T11:47:46.728Z,67.45
2022-12-14T11:50:24.097Z,114.30
2022-12-14T11:52:51.469Z,232.05
2022-12-14T11:55:26.530Z,124.78
2022-12-14T11:57:56.168Z,72.57
2022-12-14T12:00:31.014Z,73.47
2022-12-14T12:02:58.440Z,82.18
2022-12-14T12:05:26.531Z,57.58
2022-12-14T12:07:57.866Z,97.65
2022-12-14T12:10:35.962Z,129.30
2022-12-14T12:13:07.466Z,83.45
2022-12-14T12:15:39.763Z,112.32
2022-12-14T12:18:25.858Z,83.63
2022-12-14T12:20:55.097Z,133.18
2022-12-14T12:25:52.261Z,47.65
2022-12-14T12:28:22.611Z,52.15
2022-12-14T12:30:51.178Z,57.05
2022-12-14T12:33:18.542Z,59.13
2022-12-14T12:35:54.176Z,80.10
2022-12-14T12:38:21.594Z,75.53
2022-12-14T12:40:57.534Z,201.02
2022-12-14T12:43:27.896Z,95.15
2022-12-14T12:46:05.712Z,46.45
2022-12-14T12:48:48.356Z,46.92
2022-12-14T12:51:17.138Z,51.65
2022-12-14T12:53:49.637Z,59.33
2022-12-14T12:56:21.940Z,44.22
2022-12-14T12:58:52.925Z,52.30
2022-12-14T13:01:26.642Z,51.70
2022-12-14T13:03:56.702Z,59.20
2022-12-14T13:06:27.904Z,62.42
2022-12-14T13:09:00.188Z,61.85
2022-12-14T13:11:37.610Z,65.10
2022-12-14T13:14:19.804Z,55.35
2022-12-14T13:16:47.725Z,52.42
2022-12-14T13:22:05.899Z,54.40
2022-12-14T13:24:34.800Z,54.45
2022-12-14T13:27:30.563Z,49.40
2022-12-14T13:30:30.587Z,49.47
2022-12-14T13:33:05.014Z,52.28
2022-12-14T13:36:05.034Z,106.82
2022-12-14T13:38:33.881Z,86.80
2022-12-14T13:41:13.847Z,131.27
2022-12-14T13:43:53.930Z,74.55
2022-12-14T13:46:22.806Z,204.02
2022-12-14T13:48:51.984Z,221.73
2022-12-14T13:51:39.778Z,121.50
2022-12-14T13:54:16.203Z,165.02
2022-12-14T13:56:43.990Z,214.43
2022-12-14T13:59:37.277Z,156.45
2022-12-14T14:02:05.851Z,247.63
2022-12-14T14:04:33.981Z,116.95
2022-12-14T14:07:20.056Z,162.45
2022-12-14T14:09:49.536Z,160.80
2022-12-14T14:12:23.535Z,149.27
2022-12-14T14:14:51.179Z,143.73
2022-12-14T14:17:18.799Z,121.60
2022-12-14T14:19:49.688Z,182.80
2022-12-14T14:22:23.844Z,147.90
2022-12-14T14:24:59.702Z,171.65
2022-12-14T14:27:27.463Z,363.52
2022-12-14T14:29:55.489Z,180.18
2022-12-14T14:32:33.961Z,223.73
2022-12-14T14:35:01.979Z,55.67
2022-12-14T14:37:34.277Z,64.90
2022-12-14T14:40:22.056Z,57.28
2022-12-14T14:42:51.714Z,49.83
2022-12-14T14:45:34.994Z,44.13
2022-12-14T14:48:08.136Z,56.95
2022-12-14T14:50:43.027Z,55.88
2022-12-14T14:53:11.505Z,54.72
2022-12-14T14:55:54.812Z,68.05
2022-12-14T14:58:24.274Z,69.25
2022-12-14T15:01:00.137Z,60.03
2022-12-14T15:03:46.533Z,61.35
2022-12-14T15:06:15.774Z,56.13
2022-12-14T15:08:45.182Z,74.78
2022-12-14T15:11:18.353Z,56.00
2022-12-14T15:13:48.325Z,54.42
2022-12-14T15:16:28.756Z,52.97
2022-12-14T15:19:13.557Z,55.92
2022-12-14T15:21:40.739Z,54.72
2022-12-14T15:24:09.218Z,55.00
2022-12-14T15:26:36.501Z,57.83
2022-12-14T15:29:04.713Z,83.22
2022-12-14T15:31:38.828Z,57.08
2022-12-14T15:34:06.692Z,56.50
2022-12-14T15:36:37.573Z,58.42
2022-12-14T15:39:06.358Z,61.30
2022-12-14T15:41:36.500Z,70.43
2022-12-14T15:44:20.853Z,66.78
2022-12-14T15:46:53.373Z,70.53
2022-12-14T15:49:22.320Z,101.55
2022-12-14T15:51:56.305Z,81.28
2022-12-14T15:54:24.726Z,72.22
2022-12-14T15:56:54.535Z,71.32
2022-12-14T15:59:23.418Z,60.30
2022-12-14T16:02:00.064Z,63.20
2022-12-14T16:04:32.702Z,58.20
2022-12-14T16:07:09.356Z,70.35
2022-12-14T16:09:39.932Z,73.18
2022-12-14T16:12:17.527Z,65.80
2022-12-14T16:14:46.171Z,92.32
2022-12-14T16:17:14.450Z,72.95
2022-12-14T16:19:58.725Z,86.82
2022-12-14T16:22:31.308Z,75.45
2022-12-14T16:25:01.430Z,86.90
2022-12-14T16:27:43.305Z,68.65
2022-12-14T16:30:26.598Z,60.88
2022-12-14T16:33:08.988Z,61.50
2022-12-14T16:35:45.743Z,69.45
2022-12-14T16:38:16.998Z,146.23
2022-12-14T16:40:55.477Z,148.43
2022-12-14T16:43:30.417Z,160.48
2022-12-14T16:46:08.087Z,183.35
2022-12-14T16:48:41.999Z,444.02
2022-12-14T16:51:38.343Z,304.02
2022-12-14T16:54:42.859Z,150.98
2022-12-14T16:57:25.410Z,131.20
2022-12-14T17:00:34.405Z,138.60
2022-12-14T17:03:23.293Z,116.13
2022-12-14T17:05:55.006Z,123.60
2022-12-14T17:08:26.741Z,121.47
2022-12-14T17:11:21.533Z,132.15
2022-12-14T17:13:58.797Z,161.43
2022-12-14T17:16:35.918Z,152.70
2022-12-14T17:19:10.875Z,135.02
2022-12-14T17:21:49.224Z,194.80
2022-12-14T17:24:51.184Z,144.43
2022-12-14T17:27:44.381Z,109.72
2022-12-14T17:30:24.190Z,127.97
2022-12-14T17:33:15.127Z,109.13
2022-12-14T17:35:59.166Z,121.55
2022-12-14T17:39:30.263Z,117.07
2022-12-14T17:42:23.243Z,132.88
2022-12-14T17:45:10.469Z,149.88
2022-12-14T17:48:16.774Z,125.93
2022-12-14T17:51:41.512Z,139.52
2022-12-14T17:54:29.281Z,138.30
2022-12-14T17:57:54.394Z,105.55
2022-12-14T18:04:19.537Z,105.72
2022-12-14T18:06:51.252Z,104.63
2022-12-14T18:09:28.994Z,122.20
2022-12-14T18:12:23.830Z,142.35
2022-12-14T18:15:25.242Z,120.03
2022-12-14T18:19:50.998Z,107.95
2022-12-14T18:23:30.086Z,96.05
2022-12-14T18:26:44.065Z,136.10
2022-12-14T18:29:14.701Z,125.45
2022-12-14T18:31:43.940Z,128.10
2022-12-14T18:34:17.933Z,141.30
2022-12-14T18:36:46.950Z,239.88
2022-12-14T18:39:18.463Z,160.30
2022-12-14T18:41:49.827Z,183.90
2022-12-14T18:44:18.929Z,204.23
2022-12-14T18:46:49.349Z,181.85
2022-12-14T18:49:17.834Z,207.82
2022-12-14T18:51:45.536Z,247.48
2022-12-14T18:54:14.660Z,315.00
2022-12-14T18:56:42.591Z,218.13
2022-12-14T18:59:53.035Z,242.15
2022-12-14T19:02:23.214Z,195.40
2022-12-14T19:04:56.076Z,227.48
2022-12-14T19:07:24.133Z,193.80
2022-12-14T19:09:54.638Z,179.98
2022-12-14T19:12:24.216Z,125.75
2022-12-14T19:14:52.816Z,115.13
2022-12-14T19:17:24.907Z,100.93
2022-12-14T19:19:53.529Z,116.57
2022-12-14T19:24:56.029Z,134.73
2022-12-14T19:27:50.856Z,117.38
2022-12-14T19:30:16.865Z,136.52
2022-12-14T19:32:45.391Z,157.55
2022-12-14T19:35:19.847Z,137.52
2022-12-14T19:37:48.364Z,126.05
2022-12-14T19:40:18.021Z,135.63
2022-12-14T19:42:47.113Z,152.13
2022-12-14T19:45:15.699Z,153.32
2022-12-14T19:50:15.502Z,136.70
2022-12-14T19:52:43.990Z,199.45
2022-12-14T19:55:12.932Z,253.85
2022-12-14T19:57:42.512Z,246.60
2022-12-14T20:00:11.290Z,255.47
2022-12-14T20:02:39.972Z,339.77
2022-12-14T20:05:09.516Z,276.50
2022-12-14T20:07:43.565Z,256.13
2022-12-14T20:10:11.847Z,270.27
2022-12-14T20:12:40.237Z,267.65
2022-12-14T20:15:08.287Z,225.43
2022-12-14T20:17:36.485Z,152.68
2022-12-14T20:20:05.305Z,129.90
2022-12-14T20:22:33.656Z,123.00
2022-12-14T20:25:01.338Z,120.93
2022-12-14T20:27:29.542Z,120.85
2022-12-14T20:29:57.397Z,118.65
2022-12-14T20:32:26.618Z,127.10
2022-12-14T20:34:54.534Z,123.00
2022-12-14T20:37:22.747Z,132.50
2022-12-14T20:39:51.528Z,110.85
2022-12-14T20:42:19.703Z,195.20
2022-12-14T20:44:49.431Z,204.75
2022-12-14T20:47:17.814Z,202.90
2022-12-14T20:49:45.563Z,219.40
2022-12-14T20:52:13.647Z,164.73
2022-12-14T20:54:41.390Z,179.95
2022-12-14T20:57:09.669Z,184.48
2022-12-14T20:59:37.256Z,200.93
2022-12-14T21:02:05.423Z,153.65
2022-12-14T21:04:32.988Z,162.23
2022-12-14T21:07:00.911Z,152.57
2022-12-14T21:09:28.634Z,210.00
2022-12-14T21:12:15.439Z,152.27
2022-12-14T21:14:43.557Z,142.32
2022-12-14T21:17:11.487Z,151.77
2022-12-14T21:19:39.084Z,149.38
2022-12-14T21:22:08.957Z,151.80
2022-12-14T21:25:01.640Z,184.77
2022-12-14T21:27:27.674Z,200.90
2022-12-14T21:29:55.490Z,192.68
2022-12-14T21:32:23.271Z,177.93
2022-12-14T21:34:50.974Z,135.15
2022-12-14T21:37:19.126Z,147.60
2022-12-14T21:39:53.907Z,134.27
2022-12-14T21:42:26.248Z,132.90
2022-12-14T21:44:55.503Z,143.40
2022-12-14T21:49:52.826Z,150.23
2022-12-14T21:52:26.813Z,147.90
2022-12-14T21:54:54.803Z,154.13
2022-12-14T21:57:43.075Z,164.90
2022-12-14T22:00:18.282Z,162.25
2022-12-14T22:02:46.489Z,138.40
2022-12-14T22:05:14.145Z,137.95
2022-12-14T22:07:42.238Z,129.82
2022-12-14T22:10:09.672Z,141.75
2022-12-14T22:12:37.593Z,132.90
2022-12-14T22:15:05.340Z,158.05
2022-12-14T22:17:33.312Z,148.55
2022-12-14T22:20:00.690Z,146.93
2022-12-14T22:22:28.847Z,128.95
2022-12-14T22:24:56.320Z,109.88
2022-12-14T22:27:24.431Z,114.68
2022-12-14T22:29:52.128Z,115.07
2022-12-14T22:32:20.005Z,109.82
2022-12-14T22:34:47.637Z,120.88
2022-12-14T22:37:18.611Z,116.85
2022-12-14T22:39:47.879Z,104.10
2022-12-14T22:42:16.647Z,110.05
2022-12-14T22:44:44.265Z,115.43
2022-12-14T22:47:11.969Z,117.00
2022-12-14T22:49:39.172Z,119.07
2022-12-14T22:52:06.853Z,122.93
2022-12-14T22:54:37.401Z,113.75
2022-12-14T22:57:10.333Z,114.97
2022-12-14T22:59:47.170Z,132.13
2022-12-14T23:02:15.056Z,120.65
2022-12-14T23:04:42.809Z,115.30
2022-12-14T23:07:10.998Z,107.97
2022-12-14T23:09:56.895Z,104.60
2022-12-14T23:12:43.184Z,102.30
2022-12-14T23:15:29.412Z,110.47
2022-12-14T23:18:23.622Z,110.60
2022-12-14T23:21:09.909Z,95.40
2022-12-14T23:23:57.752Z,97.47
2022-12-14T23:26:43.576Z,112.78
2022-12-14T23:29:30.340Z,94.78
2022-12-14T23:32:16.053Z,100.03
2022-12-14T23:35:01.988Z,105.53
2022-12-14T23:37:47.782Z,116.47
2022-12-14T23:40:34.043Z,126.35
2022-12-14T23:43:34.767Z,110.95
2022-12-14T23:46:23.228Z,92.18
2022-12-14T23:49:13.719Z,87.80
2022-12-14T23:52:02.645Z,93.57
2022-12-14T23:54:48.543Z,100.38
2022-12-14T23:57:35.058Z,96.13
